Gainesboro, Tennessee
Current Conditions -  °F | °C
As of 1:35 PM on Tuesday 21 Oct 2014 (Local Time) from KSRB Reporting Station
Few Clouds Few Clouds  
Wind Chill: 68°   Ceiling: Unl
Heat Index: 68°   Visibility: 10mi
Dew Point: 48°   Wind: 8mph
Humidity: 49%   Direction: 340°NNW
Pressure: 30.03"   Gusts: NA
Location:  36.36°N, 85.66°W
Report Text: KSRB 211835Z AUTO 34007KT 300V360 10SM FEW047 20/09 A3003 RMK
Loading
Personal Weather Stations






























Interactive Weather Map
Tropical Storm Tracking
New forecast layout! Learn more

10-Day Weather Forecast

Advertisements
Track Severe Weather on mobile